Latest Weather Observations for Montague Island

IDN60901

Issued at 10:21 am EDT Thursday 1 December 2022 (issued every 10 minutes, with the page automatically refreshed every 10 minutes)

About weather observations | Map of Canberra area stations | Latest observations for Canberra area | Other Formats
Station Details ID: 069017 Name: MONTAGUE ISLAND LIGHTHOUSE Lat: -36.25 Lon: 150.23 Height: 52.0 m
Data from the previous 72 hours. | See also: Recent months at Montague Island
Date/Time
EDT
Temp
°C
App
Temp
°C
Dew
Point
°C
Rel
Hum
%
Delta-T
°C
Wind Press
QNH
hPa
Press
MSL
hPa
Rain since
9am
mm
Dir  Spd
km/h
Gust
km/h
Spd
kts
Gust
kts
01/10:00am 16.0 12.2 13.7 86 1.3 S 26 32 14 17 1017.9 1017.8 0.0
01/09:30am 16.4 12.3 13.9 85 1.4 SSW 28 35 15 19 1017.7 1017.6 0.0
01/09:00am 16.1 11.7 14.1 88 1.1 SSW 30 35 16 19 1017.6 1017.5 0.0
01/08:30am 16.2 12.2 14.2 88 1.1 S 28 33 15 18 1017.4 1017.3 0.0
01/08:00am 16.3 12.7 14.1 87 1.2 S 26 32 14 17 1017.0 1016.9 0.0
01/07:30am 16.3 13.4 14.0 86 1.3 SSW 22 30 12 16 1016.6 1016.5 0.0
01/07:00am 16.2 13.4 14.4 89 1.0 SSW 22 28 12 15 1016.6 1016.5 0.0
01/06:30am 16.6 14.4 14.4 87 1.3 SSW 19 24 10 13 1016.4 1016.3 0.0
01/06:00am 16.5 14.6 14.2 86 1.3 SW 17 24 9 13 1016.2 1016.1 0.0
01/05:30am 16.5 14.2 14.2 86 1.3 SW 19 22 10 12 1016.0 1015.9 0.0
01/05:00am 16.7 15.6 13.0 79 2.1 SW 11 15 6 8 1015.9 1015.8 0.0
01/04:30am 16.8 16.6 13.1 79 2.1 W 6 7 3 4 1015.7 1015.6 0.0
01/04:00am 16.8 17.0 12.9 78 2.2 WNW 4 6 2 3 1015.7 1015.6 0.0
01/03:30am 16.9 16.8 13.2 79 2.1 NW 6 9 3 5 1015.7 1015.6 0.0
01/03:00am 16.9 16.6 13.2 79 2.1 NW 7 11 4 6 1015.7 1015.6 0.0
01/02:30am 17.1 16.5 13.4 79 2.1 NNW 9 13 5 7 1015.9 1015.8 0.0
01/02:00am 17.2 14.5 12.9 76 2.4 N 19 24 10 13 1016.1 1016.0 0.0
01/01:30am 17.4 14.7 12.9 75 2.5 N 19 24 10 13 1016.4 1016.3 0.0
01/01:00am 17.4 15.1 13.1 76 2.4 N 17 22 9 12 1016.7 1016.6 0.0
01/12:30am 17.4 14.5 12.9 75 2.5 N 20 28 11 15 1016.8 1016.7 0.0
01/12:00am 17.6 14.9 13.5 77 2.3 NNE 20 26 11 14 1017.0 1016.9 0.0
 
Date/Time
EDT
Temp
°C
App
Temp
°C
Dew
Point
°C
Rel
Hum
%
Delta-T
°C
Wind Press
QNH
hPa
Press
MSL
hPa
Rain since
9am
mm
Dir  Spd
km/h
Gust
km/h
Spd
kts
Gust
kts
30/11:30pm 17.3 14.1 13.0 76 2.4 NNE 22 26 12 14 1017.2 1017.1 0.0
30/11:00pm 17.3 14.4 13.0 76 2.4 NNE 20 26 11 14 1017.1 1017.0 0.0
30/10:30pm 17.4 14.2 13.1 76 2.4 NNE 22 28 12 15 1017.5 1017.4 0.0
30/10:00pm 17.6 15.0 13.1 75 2.5 NNE 19 22 10 12 1017.5 1017.4 0.0
30/09:30pm 17.7 15.2 13.6 77 2.3 NNE 19 20 10 11 1017.0 1016.9 0.0
30/09:00pm 17.6 15.4 13.3 76 2.4 NE 17 20 9 11 1016.9 1016.8 0.0
30/08:30pm 17.6 15.4 13.3 76 2.4 NE 17 22 9 12 1016.6 1016.5 0.0
30/08:00pm 17.7 15.0 13.4 76 2.4 NE 20 24 11 13 1016.5 1016.4 0.0
30/07:30pm 17.6 14.0 12.9 74 2.6 NE 24 30 13 16 1016.4 1016.3 0.0
30/07:00pm 17.6 13.9 12.7 73 2.7 NE 24 30 13 16 1016.0 1015.9 0.0
30/06:30pm 17.7 13.7 13.0 74 2.6 NE 26 32 14 17 1015.9 1015.8 0.0
30/06:00pm 17.8 13.8 12.9 73 2.7 NE 26 35 14 19 1015.7 1015.6 0.0
30/05:30pm 17.6 13.1 12.5 72 2.8 NE 28 35 15 19 1015.8 1015.7 0.0
30/05:00pm 17.9 13.6 13.2 74 2.6 NE 28 35 15 19 1015.7 1015.6 0.0
30/04:30pm 18.1 13.9 13.4 74 2.7 NE 28 35 15 19 1015.6 1015.5 0.0
30/04:00pm 18.1 13.7 13.0 72 2.9 NE 28 33 15 18 1015.5 1015.4 0.0
30/03:30pm 18.5 14.5 12.9 70 3.2 NE 26 33 14 18 1015.7 1015.6 0.0
30/03:00pm 18.3 13.7 12.3 68 3.3 NE 28 37 15 20 1016.0 1015.9 0.0
30/02:30pm 18.9 14.9 13.1 69 3.3 NE 26 33 14 18 1016.3 1016.2 0.0
30/02:00pm 18.5 14.3 12.5 68 3.3 NE 26 33 14 18 1016.6 1016.5 0.0
30/01:30pm 18.7 15.0 12.7 68 3.4 NE 24 30 13 16 1016.8 1016.7 0.0
30/01:00pm 18.4 14.9 12.2 67 3.4 NE 22 28 12 15 1017.2 1017.1 0.0
30/12:30pm 18.8 15.8 12.5 67 3.5 NE 20 26 11 14 1017.5 1017.4 0.0
30/12:00pm 18.4 15.5 12.2 67 3.4 NE 19 26 10 14 1017.9 1017.8 0.0
30/11:30am 18.1 15.2 12.3 69 3.2 NNE 19 24 10 13 1018.2 1018.1 0.0
30/11:00am 17.9 15.1 12.6 71 3.0 NNE 19 24 10 13 1018.4 1018.3 0.0
30/10:30am 17.4 14.3 11.7 69 3.1 NNE 19 24 10 13 1018.5 1018.4 0.0
30/10:00am 17.4 14.5 12.3 72 2.8 NNE 19 24 10 13 1018.6 1018.5 0.0
30/09:30am 16.8 14.4 11.3 70 3.0 NNE 15 20 8 11 1018.9 1018.8 0.0
30/09:00am 16.7 14.4 11.6 72 2.8 NNW 15 20 8 11 1019.0 1018.9 0.0
30/08:30am 16.7 14.9 12.0 74 2.6 NNW 13 20 7 11 1019.0 1018.9 0.0
30/08:00am 15.9 14.3 11.7 76 2.3 NNW 11 17 6 9 1018.9 1018.8 0.0
30/07:30am 15.1 13.1 11.5 79 1.9 NNW 13 17 7 9 1018.7 1018.6 0.0
30/07:00am 15.0 13.4 11.4 79 1.9 NNW 11 17 6 9 1018.5 1018.4 0.0
30/06:30am 14.7 12.8 11.7 82 1.6 NW 13 17 7 9 1018.3 1018.2 0.0
30/06:00am 14.6 13.0 11.7 83 1.6 NW 11 15 6 8 1018.2 1018.1 0.0
30/05:30am 14.6 12.7 11.7 83 1.6 NW 13 17 7 9 1018.0 1017.9 0.0
30/05:00am 15.1 14.0 11.9 81 1.7 NW 9 17 5 9 1017.9 1017.8 0.0
30/04:30am 15.2 13.7 9.1 67 3.1 ENE 7 9 4 5 1017.8 1017.7 0.0
30/04:00am 15.1 13.2 9.2 68 3.0 E 9 13 5 7 1017.8 1017.7 0.0
30/03:30am 15.4 13.3 9.7 69 3.0 ESE 11 15 6 8 1017.9 1017.8 0.0
30/03:00am 15.2 12.2 9.1 67 3.1 SE 15 19 8 10 1017.9 1017.8 0.0
30/02:30am 15.2 11.3 9.3 68 3.0 SE 20 24 11 13 1018.1 1018.0 0.0
30/02:00am 15.3 11.0 9.2 67 3.1 SSE 22 28 12 15 1018.1 1018.0 0.0
30/01:30am 15.4 10.4 9.5 68 3.1 SSE 26 30 14 16 1018.1 1018.0 0.0
30/01:00am 15.5 10.0 9.0 65 3.3 SSE 28 32 15 17 1018.0 1017.9 0.0
30/12:30am 15.7 10.2 9.1 65 3.4 SSE 28 32 15 17 1018.0 1017.9 0.0
30/12:00am 15.9 10.1 9.3 65 3.4 SSE 30 37 16 20 1018.1 1018.0 0.0
 
Date/Time
EDT
Temp
°C
App
Temp
°C
Dew
Point
°C
Rel
Hum
%
Delta-T
°C
Wind Press
QNH
hPa
Press
MSL
hPa
Rain since
9am
mm
Dir  Spd
km/h
Gust
km/h
Spd
kts
Gust
kts
29/11:30pm 15.9 9.1 9.3 65 3.4 SSE 35 43 19 23 1017.9 1017.8 0.0
29/11:00pm 16.2 10.8 9.6 65 3.4 SSE 28 35 15 19 1018.1 1018.0 0.0
29/10:30pm 16.2 12.3 10.9 71 2.8 SSE 22 28 12 15 1018.0 1017.9 0.0
29/10:00pm 16.1 11.4 10.6 70 2.9 SSE 26 32 14 17 1017.9 1017.8 0.0
29/09:30pm 15.9 10.8 10.7 71 2.8 SSE 28 33 15 18 1017.6 1017.5 0.0
29/09:00pm 16.0 9.7 11.0 72 2.7 SSE 35 39 19 21 1017.1 1017.0 0.0
29/08:30pm 16.0 10.3 11.0 72 2.7 SSE 32 39 17 21 1016.8 1016.7 0.0
29/08:00pm 16.1 10.6 10.6 70 2.9 SSE 30 35 16 19 1016.5 1016.4 0.0
29/07:30pm 16.2 10.3 10.3 68 3.1 SSE 32 37 17 20 1015.9 1015.8 0.0
29/07:00pm 16.4 10.4 10.7 69 3.0 SSE 33 39 18 21 1015.4 1015.3 0.0
29/06:30pm 16.6 9.9 10.9 69 3.1 SSE 37 44 20 24 1014.9 1014.8 0.0
29/06:00pm 16.6 9.0 10.5 67 3.2 SE 41 46 22 25 1014.2 1014.1 0.0
29/05:30pm 17.2 10.2 11.2 68 3.2 SSE 39 44 21 24 1014.1 1014.0 0.0
29/05:00pm 17.6 10.2 9.8 60 4.1 SE 39 46 21 25 1013.7 1013.5 0.0
29/04:30pm 17.6 10.1 9.5 59 4.3 SE 39 46 21 25 1013.3 1013.1 0.0
29/04:00pm 17.6 9.4 10.5 63 3.8 SE 44 52 24 28 1012.8 1012.7 0.0
29/03:30pm 18.1 8.7 8.9 55 4.8 SE 48 56 26 30 1012.5 1012.4 0.0
29/03:00pm 18.3 9.3 8.8 54 4.9 SSE 46 56 25 30 1012.4 1012.3 0.0
29/02:30pm 18.8 11.6 10.6 59 4.4 SSE 39 46 21 25 1012.5 1012.4 0.0
29/02:00pm 18.7 10.3 9.5 55 4.9 SSE 44 54 24 29 1012.3 1012.2 0.0
29/01:30pm 18.3 10.0 9.4 56 4.7 SSE 43 50 23 27 1012.4 1012.3 0.0
29/01:00pm 18.3 9.8 8.6 53 5.0 SSE 43 48 23 26 1012.4 1012.3 0.0
29/12:30pm 18.5 10.8 8.5 52 5.2 SSE 39 48 21 26 1012.6 1012.5 0.0
29/12:00pm 19.2 12.1 9.7 54 5.1 S 37 44 20 24 1012.5 1012.4 0.0
29/11:30am 18.6 11.2 9.7 56 4.7 S 39 46 21 25 1012.6 1012.5 0.0
29/11:00am 19.4 12.5 10.4 56 4.9 S 37 46 20 25 1012.1 1012.0 0.0
29/10:30am 18.6 13.0 11.4 63 3.9 S 32 39 17 21 1011.9 1011.8 0.0
29/10:00am 18.1 14.1 11.9 67 3.4 S 24 30 13 16 1011.6 1011.5 0.0
29/09:30am 17.6 13.7 12.1 70 3.0 S 24 32 13 17 1011.8 1011.7 0.0
29/09:00am 16.6 10.0 11.3 71 2.9 S 37 46 20 25 1011.5 1011.4 0.0
29/08:30am 17.5 12.0 12.0 70 3.0 S 32 41 17 22 1011.1 1011.0 0.0
29/08:22am 17.1 12.2 11.2 68 3.2 S 28 35 15 19 1010.9 1010.8 0.0
29/08:00am 15.9 14.6 11.1 73 2.6 WSW 9 11 5 6 1010.4 1010.3 0.0
29/07:30am 14.9 12.5 10.1 73 2.5 W 13 17 7 9 1009.9 1009.8 0.0
29/07:00am 14.2 11.8 10.2 77 2.1 WNW 13 17 7 9 1009.5 1009.4 0.0
29/06:30am 14.1 11.8 11.8 86 1.2 WNW 15 20 8 11 1009.3 1009.2 0.0
29/06:00am 13.9 11.6 11.6 86 1.2 WNW 15 17 8 9 1008.8 1008.7 0.0
29/05:30am 13.6 12.3 11.3 86 1.2 WNW 9 13 5 7 1008.5 1008.4 0.0
29/05:00am 13.6 11.9 11.3 86 1.2 W 11 13 6 7 1008.3 1008.2 0.0
29/04:30am 13.6 11.9 11.3 86 1.2 WNW 11 15 6 8 1008.1 1008.0 0.0
29/04:00am 14.0 12.7 11.3 84 1.4 WNW 9 15 5 8 1008.3 1008.2 0.0
29/03:30am 14.0 13.1 11.2 83 1.5 WNW 7 9 4 5 1008.3 1008.2 0.0
29/03:00am 13.9 12.6 11.1 83 1.5 WNW 9 13 5 7 1008.3 1008.2 0.0
29/02:30am 14.1 12.5 11.4 84 1.4 WNW 11 15 6 8 1008.3 1008.2 0.0
29/02:00am 14.0 11.7 11.7 86 1.2 W 15 19 8 10 1008.7 1008.6 0.0
29/01:30am 14.0 12.1 11.7 86 1.2 W 13 17 7 9 1008.7 1008.6 0.0
29/01:00am 14.1 12.5 11.6 85 1.3 WNW 11 13 6 7 1009.0 1008.9 0.0
29/12:30am 14.9 14.3 11.7 81 1.7 W 6 9 3 5 1009.1 1009.0 0.0
29/12:00am 14.4 13.3 10.6 78 2.0 SSW 7 9 4 5 1009.4 1009.3 0.0
 
Date/Time
EDT
Temp
°C
App
Temp
°C
Dew
Point
°C
Rel
Hum
%
Delta-T
°C
Wind Press
QNH
hPa
Press
MSL
hPa
Rain since
9am
mm
Dir  Spd
km/h
Gust
km/h
Spd
kts
Gust
kts
28/11:30pm 14.4 13.2 10.4 77 2.1 SSE 7 11 4 6 1009.6 1009.5 0.0
28/11:00pm 14.0 12.9 10.8 81 1.7 S 7 11 4 6 1009.5 1009.4 0.0
28/10:30pm 13.5 11.7 10.7 83 1.5 ESE 11 15 6 8 1009.3 1009.2 0.0
28/10:00pm 13.3 11.3 11.5 89 1.0 SSE 13 19 7 10 1009.5 1009.4 0.0
28/09:30pm 13.7 11.4 11.9 89 1.0 S 15 20 8 11 1009.3 1009.2 0.0
28/09:00pm 14.1 11.3 11.4 84 1.4 SSE 17 20 9 11 1008.8 1008.7 0.0
28/08:30pm 14.4 12.4 11.4 82 1.6 ESE 13 20 7 11 1008.3 1008.2 0.0
28/08:00pm 14.4 12.8 11.6 83 1.5 SE 11 19 6 10 1008.2 1008.1 0.0
28/07:30pm 14.2 11.0 11.4 83 1.5 SE 19 22 10 12 1008.0 1007.9 0.0
28/07:00pm 14.2 10.9 11.5 84 1.4 SSE 20 26 11 14 1007.7 1007.6 0.0
28/06:30pm 13.9 10.5 11.2 84 1.4 SSE 20 26 11 14 1007.3 1007.2 0.0
28/06:00pm 14.3 10.8 12.2 87 1.1 SE 22 26 12 14 1006.8 1006.7 0.0
28/05:30pm 14.4 11.1 11.7 84 1.5 SSE 20 28 11 15 1006.7 1006.6 0.0
28/05:00pm 14.5 11.8 11.8 84 1.5 S 17 22 9 12 1006.5 1006.4 0.0
28/04:30pm 15.2 12.2 11.8 80 1.8 SE 19 22 10 12 1006.5 1006.4 0.0
28/04:00pm 15.4 12.9 11.0 75 2.4 SE 15 22 8 12 1006.4 1006.3 0.0
28/03:30pm 15.5 13.0 11.1 75 2.4 SE 15 20 8 11 1006.4 1006.3 0.0
28/03:00pm 15.2 12.2 10.6 74 2.4 SE 17 24 9 13 1006.4 1006.3 0.0
28/02:30pm 15.7 12.5 11.3 75 2.4 SE 19 22 10 12 1006.5 1006.4 0.0
28/02:00pm 15.7 12.5 11.1 74 2.5 SE 19 22 10 12 1006.5 1006.4 0.0
28/01:30pm 15.9 13.0 10.9 72 2.7 ESE 17 22 9 12 1006.5 1006.4 0.0
28/01:00pm 15.9 13.2 10.4 70 2.9 SE 15 19 8 10 1006.7 1006.6 0.0
28/12:30pm 16.5 13.4 10.4 67 3.2 SE 17 20 9 11 1006.6 1006.5 0.0
28/12:00pm 16.2 13.1 10.3 68 3.1 SSE 17 20 9 11 1007.1 1007.0 0.0
28/11:30am 16.8 13.7 10.4 66 3.4 SE 17 20 9 11 1007.1 1007.0 0.0
28/11:00am 16.2 13.4 10.1 67 3.2 SSE 15 19 8 10 1007.1 1007.0 0.0
28/10:30am 15.4 12.1 9.7 69 3.0 S 17 20 9 11 1007.4 1007.3 0.0

Latest Capital City Observations: Canberra | Sydney | Melbourne | Brisbane | Adelaide | Perth | Hobart | Darwin

Other formats

Comma delimited format used in spreadsheet applications
http://www.bom.gov.au/fwo/IDN60903/IDN60903.94939.axf

JavaScript Object Notation format (JSON) in row-major order
http://www.bom.gov.au/fwo/IDN60903/IDN60903.94939.json

Data quality

Most of these data are generated automatically and are frequently updated. Quality checks on data are not normally performed. It is possible for incorrect values to appear. Refer to information at About Latest Weather Observations and please check the disclaimer before using these data.